Nearby METAR Reports

 

KSNK - Snyder/Winston, Texas, USA
Distance from station: SSE 25mi, 41km
Updated: Thu, 27-Feb-2020 4:15pm CST
Clear
Clear
 Wind from WSW
Wind: WSW 7 mph , 11 km/h
Temperature: 64°F , 18°C
Dew Point: 14°F , -10°C
Humidity: 14%
Barometer: 30.18 inHg , 1022 hPa
Clouds: Clear
Visibility: 10 miles , 16 km
2020/02/27 22:15 KSNK 272215Z AUTO 24006KT 10SM CLR 18/M10 A3018 RMK AO2 T01831097
KSWW - Sweetwater, Texas, USA
Distance from station: SE 56mi, 90km
Updated: Thu, 27-Feb-2020 3:55pm CST
Clear
Clear
 Wind from WSW
Wind: WSW 17 mph , 28 km/h, Gust: 23 mph , 37 km/h
Temperature: 64°F , 18°C
Dew Point: 12°F , -11°C
Humidity: 13%
Barometer: 30.21 inHg , 1023 hPa
Clouds: Clear
Visibility: 10 miles , 16 km
2020/02/27 21:55 KSWW 272155Z AUTO 24015G20KT 10SM CLR 18/M11 A3021 RMK AO2 T01781111
 
KLBB - Lubbock, Texas, USA
Distance from station: NW 59mi, 94km
Updated: Thu, 27-Feb-2020 3:53pm CST
Clear
Clear
 Wind from NNW
Wind: NNW 16 mph , 26 km/h, Gust: 23 mph , 37 km/h
Temperature: 64°F , 18°C
Dew Point: 12°F , -11°C
Humidity: 13%
Barometer: 30.17 inHg , 1021.7 hPa
Clouds: Clear
Visibility: 10 miles , 16 km
2020/02/27 21:53 KLBB 272153Z 33014G20KT 10SM CLR 18/M11 A3017 RMK AO2 SLP206 T01831106
KPVW - Plainview, Texas, USA
Distance from station: NNW 85mi, 137km
Updated: Thu, 27-Feb-2020 3:55pm CST
Clear
Clear
 Wind from N
Wind: N 21 mph , 33 km/h, Gust: 24 mph , 39 km/h
Temperature: 61°F , 16°C
Dew Point: 10°F , -12°C
Humidity: 13%
Barometer: 30.18 inHg , 1022 hPa
Clouds: Clear
Visibility: 10 miles , 16 km
2020/02/27 21:55 KPVW 272155Z AUTO 35018G21KT 10SM CLR 16/M12 A3018 RMK AO2 T01641116
 
KDYS - Dyess Afb/Abilen, Texas, USA
Distance from station: ESE 88mi, 141km
Updated: Thu, 27-Feb-2020 3:56pm CST
Clear
Clear
 Wind from SSW
Wind: SSW 15 mph , 24 km/h, Gust: 21 mph , 33 km/h
Temperature: 64°F , 18°C
Dew Point: 10°F , -12°C
Humidity: 12%
Barometer: 30.17 inHg , 1021.7 hPa
Clouds: Clear
Visibility: 10 miles , 16 km
2020/02/27 21:56 KDYS 272156Z 20013G18KT 10SM CLR 18/M12 A3017 RMK AO2A SLP214 T01831116 $
KGNC - Seminole, Texas, USA
Distance from station: WSW 89mi, 144km
Updated: Thu, 27-Feb-2020 3:55pm CST
Clear
Clear
 Wind from WSW
Wind: WSW 3 mph , 6 km/h
Temperature: 63°F , 17°C
Dew Point: 12°F , -11°C
Humidity: 14%
Barometer: 30.23 inHg , 1023.7 hPa
Clouds: Clear
Visibility: 10 miles , 16 km
2020/02/27 21:55 KGNC 272155Z AUTO 25003KT 10SM CLR 17/M11 A3023 RMK AO2 T01731113
 
KE11 - Andrews, Texas, USA
Distance from station: WSW 93mi, 149km
Updated: Thu, 27-Feb-2020 3:55pm CST
Clear
Clear
 Wind from WNW
Wind: WNW 9 mph , 15 km/h
Temperature: 64°F , 18°C
Dew Point: 12°F , -11°C
Humidity: 13%
Barometer: 30.20 inHg , 1022.7 hPa
Clouds: Clear
Visibility: 10 miles , 16 km
2020/02/27 21:55 KE11 272155Z AUTO 29008KT 10SM CLR 18/M11 A3020 RMK AO2 T01831111
KABI - Abilene, Texas, USA
Distance from station: ESE 96mi, 154km
Updated: Thu, 27-Feb-2020 3:52pm CST
Clear
Clear
 Wind from WSW
Wind: WSW 15 mph , 24 km/h, Gust: 21 mph , 33 km/h
Temperature: 64°F , 18°C
Dew Point: 16°F , -9°C
Humidity: 15%
Barometer: 30.18 inHg , 1022 hPa
Clouds: Clear
Visibility: 10 miles , 16 km
2020/02/27 21:52 KABI 272152Z 25013G18KT 10SM CLR 18/M09 A3018 RMK AO2 SLP218 T01831094
 
KMAF - Midland, Texas, USA
Distance from station: SW 96mi, 154km
Updated: Thu, 27-Feb-2020 3:53pm CST
Clear
Clear
 Wind from W
Wind: W 10 mph , 17 km/h
Temperature: 66°F , 19°C
Dew Point: 12°F , -11°C
Humidity: 12%
Barometer: 30.19 inHg , 1022.4 hPa
Clouds: Clear
Visibility: 10 miles , 16 km
2020/02/27 21:53 KMAF 272153Z 27009KT 10SM CLR 19/M11 A3019 RMK AO2 PK WND 28028/2117 SLP206 T01941111
KCDS - Childress, Texas, USA
Distance from station: NNE 110mi, 177km
Updated: Thu, 27-Feb-2020 3:53pm CST
Clear
Clear
 Wind from NNW
Wind: NNW 9 mph , 15 km/h
Temperature: 64°F , 18°C
Dew Point: 18°F , -8°C
Humidity: 16%
Barometer: 30.16 inHg , 1021.3 hPa
Clouds: Clear
Visibility: 10 miles , 16 km
2020/02/27 21:53 KCDS 272153Z AUTO 33008KT 10SM CLR 18/M08 A3016 RMK AO2 SLP213 T01831078
 
KSJT - San Angelo, Texas, USA
Distance from station: SSE 121mi, 194km
Updated: Thu, 27-Feb-2020 3:51pm CST
Clear
Clear
 Wind from SW
Wind: SW 16 mph , 26 km/h, Gust: 20 mph , 31 km/h
Temperature: 64°F , 18°C
Dew Point: 12°F , -11°C
Humidity: 13%
Barometer: 30.22 inHg , 1023.4 hPa
Clouds: Clear
Visibility: 10 miles , 16 km
2020/02/27 21:51 KSJT 272151Z 22014G17KT 10SM CLR 18/M11 A3022 RMK AO2 SLP235 T01831106 $
KHOB - Hobbs/Lea Co., New Mexico, USA
Distance from station: WSW 122mi, 196km
Updated: Thu, 27-Feb-2020 3:50pm CST
Clear
Clear
 Wind from NNW
Wind: NNW 9 mph , 15 km/h, Gust: 17 mph , 28 km/h
Temperature: 64°F , 18°C
Dew Point: 7°F , -14°C
Humidity: 10%
Barometer: 30.20 inHg , 1022.7 hPa
Clouds: Clear
Visibility: 10 miles , 16 km
2020/02/27 21:50 KHOB 272150Z 34008G15KT 10SM SKC 18/M14 A3020
 
KCOM - Coleman Muni, Texas, USA
Distance from station: SE 131mi, 212km
Updated: Thu, 27-Feb-2020 3:35pm CST
Clear
Clear
 Wind from WSW
Wind: WSW 12 mph , 19 km/h, Gust: 18 mph , 30 km/h
Temperature: 63°F , 17°C
Dew Point: 18°F , -8°C
Humidity: 17%
Barometer: 30.22 inHg , 1023.4 hPa
Clouds: Clear
Visibility: 10 miles , 16 km
2020/02/27 21:35 KCOM 272135Z AUTO 25010G16KT 10SM CLR 17/M08 A3022 RMK AO2
KBKD - Breckenridge, Texas, USA
Distance from station: E 134mi, 215km
Updated: Thu, 27-Feb-2020 4:15pm CST
Haze, Clear
Haze, Clear
 Wind from W
Wind: W 8 mph , 13 km/h
Temperature: 66°F , 19°C
Dew Point: 19°F , -7°C
Humidity: 17%
Barometer: 30.18 inHg , 1022 hPa
Summary: Haze
Clouds: Clear
Visibility: 5 miles , 8 km
2020/02/27 22:15 KBKD 272215Z AUTO 26007KT 5SM HZ CLR 19/M07 A3018 RMK AO2 T01901074
 
KF05 - Vernon Wilbarger, Texas, USA
Distance from station: NE 137mi, 220km
Updated: Thu, 27-Feb-2020 4:15pm CST
Clear
Clear
 Wind from W
Wind: W 6 mph , 9 km/h
Temperature: 68°F , 20°C
Dew Point: 19°F , -7°C
Humidity: 16%
Barometer: 30.15 inHg , 1021 hPa
Clouds: Clear
Visibility: 10 miles , 16 km
2020/02/27 22:15 KF05 272215Z AUTO 28005KT 10SM CLR 20/M07 A3015 RMK AO1 T01951068